sensor_id;sensor_type;location;lat;lon;timestamp;P1;durP1;ratioP1;P2;durP2;ratioP2
57899;SDS011;60605;53.716;19.940;2022-07-05T00:02:31;5.60;;;4.20;;
57899;SDS011;60605;53.716;19.940;2022-07-05T00:07:35;4.80;;;4.40;;
57899;SDS011;60605;53.716;19.940;2022-07-05T00:12:38;4.70;;;4.30;;
57899;SDS011;60605;53.716;19.940;2022-07-05T00:17:42;4.70;;;4.30;;
57899;SDS011;60605;53.716;19.940;2022-07-05T00:22:45;4.80;;;4.40;;
57899;SDS011;60605;53.716;19.940;2022-07-05T00:27:48;5.20;;;4.70;;
57899;SDS011;60605;53.716;19.940;2022-07-05T00:32:52;4.60;;;4.20;;
57899;SDS011;60605;53.716;19.940;2022-07-05T00:37:56;5.10;;;4.60;;
57899;SDS011;60605;53.716;19.940;2022-07-05T00:42:59;5.40;;;4.90;;
57899;SDS011;60605;53.716;19.940;2022-07-05T00:48:03;6.50;;;5.40;;
57899;SDS011;60605;53.716;19.940;2022-07-05T00:53:06;5.50;;;4.90;;
57899;SDS011;60605;53.716;19.940;2022-07-05T00:58:11;5.60;;;5.20;;
57899;SDS011;60605;53.716;19.940;2022-07-05T01:03:15;5.90;;;5.40;;
57899;SDS011;60605;53.716;19.940;2022-07-05T01:08:18;6.10;;;4.90;;
57899;SDS011;60605;53.716;19.940;2022-07-05T01:13:22;5.90;;;5.20;;
57899;SDS011;60605;53.716;19.940;2022-07-05T01:18:27;5.10;;;4.70;;
57899;SDS011;60605;53.716;19.940;2022-07-05T01:23:31;5.50;;;5.00;;
57899;SDS011;60605;53.716;19.940;2022-07-05T01:28:35;5.90;;;5.00;;
57899;SDS011;60605;53.716;19.940;2022-07-05T01:33:39;5.60;;;5.10;;
57899;SDS011;60605;53.716;19.940;2022-07-05T01:38:43;5.90;;;5.30;;
57899;SDS011;60605;53.716;19.940;2022-07-05T01:43:47;5.40;;;4.80;;
57899;SDS011;60605;53.716;19.940;2022-07-05T01:48:51;5.30;;;4.80;;
57899;SDS011;60605;53.716;19.940;2022-07-05T01:53:59;9.60;;;6.10;;
57899;SDS011;60605;53.716;19.940;2022-07-05T01:59:02;5.50;;;5.00;;
57899;SDS011;60605;53.716;19.940;2022-07-05T02:04:07;6.10;;;5.50;;
57899;SDS011;60605;53.716;19.940;2022-07-05T02:09:11;7.00;;;5.70;;
57899;SDS011;60605;53.716;19.940;2022-07-05T02:14:15;6.30;;;5.60;;
57899;SDS011;60605;53.716;19.940;2022-07-05T02:19:18;7.40;;;6.70;;
57899;SDS011;60605;53.716;19.940;2022-07-05T02:24:22;7.30;;;6.50;;
57899;SDS011;60605;53.716;19.940;2022-07-05T02:29:25;9.30;;;6.30;;
57899;SDS011;60605;53.716;19.940;2022-07-05T02:34:28;6.10;;;5.50;;
57899;SDS011;60605;53.716;19.940;2022-07-05T02:39:32;9.30;;;6.30;;
57899;SDS011;60605;53.716;19.940;2022-07-05T02:44:35;9.80;;;7.10;;
57899;SDS011;60605;53.716;19.940;2022-07-05T02:49:39;8.00;;;7.30;;
57899;SDS011;60605;53.716;19.940;2022-07-05T02:54:43;8.20;;;7.40;;
57899;SDS011;60605;53.716;19.940;2022-07-05T02:59:47;10.30;;;7.90;;
57899;SDS011;60605;53.716;19.940;2022-07-05T03:04:50;9.10;;;7.90;;
57899;SDS011;60605;53.716;19.940;2022-07-05T03:09:53;10.60;;;8.10;;
57899;SDS011;60605;53.716;19.940;2022-07-05T03:14:57;17.20;;;7.30;;
57899;SDS011;60605;53.716;19.940;2022-07-05T03:20:00;10.90;;;8.10;;
57899;SDS011;60605;53.716;19.940;2022-07-05T03:25:04;30.20;;;9.40;;
57899;SDS011;60605;53.716;19.940;2022-07-05T03:30:08;55.10;;;14.20;;
57899;SDS011;60605;53.716;19.940;2022-07-05T03:35:15;55.60;;;18.00;;
57899;SDS011;60605;53.716;19.940;2022-07-05T03:40:19;27.70;;;14.00;;
57899;SDS011;60605;53.716;19.940;2022-07-05T03:45:22;54.70;;;9.70;;
57899;SDS011;60605;53.716;19.940;2022-07-05T03:50:26;45.50;;;8.50;;
57899;SDS011;60605;53.716;19.940;2022-07-05T03:55:30;47.70;;;8.20;;
57899;SDS011;60605;53.716;19.940;2022-07-05T04:00:33;61.00;;;7.50;;
57899;SDS011;60605;53.716;19.940;2022-07-05T04:05:37;30.00;;;6.00;;
57899;SDS011;60605;53.716;19.940;2022-07-05T04:10:42;7.20;;;6.00;;
57899;SDS011;60605;53.716;19.940;2022-07-05T04:15:45;11.70;;;5.80;;
57899;SDS011;60605;53.716;19.940;2022-07-05T04:20:48;6.60;;;5.50;;
57899;SDS011;60605;53.716;19.940;2022-07-05T04:25:52;6.50;;;5.50;;
57899;SDS011;60605;53.716;19.940;2022-07-05T04:30:57;4.70;;;4.20;;
57899;SDS011;60605;53.716;19.940;2022-07-05T04:36:01;4.50;;;3.90;;
57899;SDS011;60605;53.716;19.940;2022-07-05T04:41:05;4.70;;;4.30;;
57899;SDS011;60605;53.716;19.940;2022-07-05T04:46:08;7.00;;;4.60;;
57899;SDS011;60605;53.716;19.940;2022-07-05T04:51:12;5.50;;;4.30;;
57899;SDS011;60605;53.716;19.940;2022-07-05T04:56:16;6.70;;;3.60;;
57899;SDS011;60605;53.716;19.940;2022-07-05T05:01:20;4.10;;;3.00;;
57899;SDS011;60605;53.716;19.940;2022-07-05T05:06:24;7.10;;;3.10;;
57899;SDS011;60605;53.716;19.940;2022-07-05T05:11:27;2.70;;;2.10;;
57899;SDS011;60605;53.716;19.940;2022-07-05T05:16:30;2.70;;;1.90;;
57899;SDS011;60605;53.716;19.940;2022-07-05T05:21:34;1.70;;;1.60;;
57899;SDS011;60605;53.716;19.940;2022-07-05T05:26:38;2.10;;;1.80;;
57899;SDS011;60605;53.716;19.940;2022-07-05T05:31:41;2.40;;;1.70;;
57899;SDS011;60605;53.716;19.940;2022-07-05T05:36:45;2.20;;;1.40;;
57899;SDS011;60605;53.716;19.940;2022-07-05T05:41:48;1.40;;;1.20;;
57899;SDS011;60605;53.716;19.940;2022-07-05T05:46:52;1.60;;;1.30;;
57899;SDS011;60605;53.716;19.940;2022-07-05T05:51:55;1.40;;;1.30;;
57899;SDS011;60605;53.716;19.940;2022-07-05T05:56:59;1.90;;;1.30;;
57899;SDS011;60605;53.716;19.940;2022-07-05T06:02:03;2.80;;;1.50;;
57899;SDS011;60605;53.716;19.940;2022-07-05T06:07:07;1.60;;;1.40;;
57899;SDS011;60605;53.716;19.940;2022-07-05T06:12:10;2.90;;;1.40;;
57899;SDS011;60605;53.716;19.940;2022-07-05T06:17:14;1.40;;;1.30;;
57899;SDS011;60605;53.716;19.940;2022-07-05T06:22:17;1.60;;;1.40;;
57899;SDS011;60605;53.716;19.940;2022-07-05T06:27:20;1.40;;;1.30;;
57899;SDS011;60605;53.716;19.940;2022-07-05T06:32:24;1.00;;;1.00;;
57899;SDS011;60605;53.716;19.940;2022-07-05T06:37:39;1.30;;;1.20;;
57899;SDS011;60605;53.716;19.940;2022-07-05T06:42:47;1.60;;;1.30;;
57899;SDS011;60605;53.716;19.940;2022-07-05T06:47:58;1.20;;;1.10;;
57899;SDS011;60605;53.716;19.940;2022-07-05T06:53:08;1.20;;;1.10;;
57899;SDS011;60605;53.716;19.940;2022-07-05T06:58:13;1.30;;;1.20;;
57899;SDS011;60605;53.716;19.940;2022-07-05T07:03:17;0.90;;;0.90;;
57899;SDS011;60605;53.716;19.940;2022-07-05T07:08:40;1.30;;;1.20;;
57899;SDS011;60605;53.716;19.940;2022-07-05T07:14:02;1.20;;;1.10;;
57899;SDS011;60605;53.716;19.940;2022-07-05T07:19:06;1.10;;;1.00;;
57899;SDS011;60605;53.716;19.940;2022-07-05T07:24:14;1.10;;;1.10;;
57899;SDS011;60605;53.716;19.940;2022-07-05T07:29:17;1.60;;;1.20;;
57899;SDS011;60605;53.716;19.940;2022-07-05T07:34:21;1.10;;;0.90;;
57899;SDS011;60605;53.716;19.940;2022-07-05T07:39:26;1.50;;;0.90;;
57899;SDS011;60605;53.716;19.940;2022-07-05T07:44:28;1.00;;;0.90;;
57899;SDS011;60605;53.716;19.940;2022-07-05T07:49:31;1.20;;;1.10;;
57899;SDS011;60605;53.716;19.940;2022-07-05T07:54:35;1.50;;;0.90;;
57899;SDS011;60605;53.716;19.940;2022-07-05T07:59:38;2.70;;;1.00;;
57899;SDS011;60605;53.716;19.940;2022-07-05T08:04:42;1.80;;;1.10;;
57899;SDS011;60605;53.716;19.940;2022-07-05T08:09:46;1.30;;;1.10;;
57899;SDS011;60605;53.716;19.940;2022-07-05T08:14:50;1.10;;;1.00;;
57899;SDS011;60605;53.716;19.940;2022-07-05T08:19:54;1.50;;;1.10;;
57899;SDS011;60605;53.716;19.940;2022-07-05T08:25:17;1.40;;;1.30;;
57899;SDS011;60605;53.716;19.940;2022-07-05T08:30:21;2.50;;;1.00;;
57899;SDS011;60605;53.716;19.940;2022-07-05T08:35:25;2.70;;;1.00;;
57899;SDS011;60605;53.716;19.940;2022-07-05T08:40:29;1.10;;;0.90;;
57899;SDS011;60605;53.716;19.940;2022-07-05T08:45:36;1.60;;;1.20;;
57899;SDS011;60605;53.716;19.940;2022-07-05T08:50:40;1.90;;;1.00;;
57899;SDS011;60605;53.716;19.940;2022-07-05T08:55:45;1.30;;;1.20;;
57899;SDS011;60605;53.716;19.940;2022-07-05T09:00:48;1.20;;;1.10;;
57899;SDS011;60605;53.716;19.940;2022-07-05T09:05:52;3.50;;;1.40;;
57899;SDS011;60605;53.716;19.940;2022-07-05T09:11:00;1.30;;;1.00;;
57899;SDS011;60605;53.716;19.940;2022-07-05T09:16:06;2.20;;;1.20;;
57899;SDS011;60605;53.716;19.940;2022-07-05T09:26:40;3.40;;;1.30;;
57899;SDS011;60605;53.716;19.940;2022-07-05T09:31:48;1.10;;;0.90;;
57899;SDS011;60605;53.716;19.940;2022-07-05T09:36:56;1.70;;;1.10;;
57899;SDS011;60605;53.716;19.940;2022-07-05T09:42:09;3.90;;;1.20;;
57899;SDS011;60605;53.716;19.940;2022-07-05T09:47:15;1.20;;;1.10;;
57899;SDS011;60605;53.716;19.940;2022-07-05T09:52:30;0.60;;;0.60;;
57899;SDS011;60605;53.716;19.940;2022-07-05T09:57:37;1.40;;;1.00;;
57899;SDS011;60605;53.716;19.940;2022-07-05T10:02:43;1.40;;;1.30;;
57899;SDS011;60605;53.716;19.940;2022-07-05T10:07:52;1.90;;;0.90;;
57899;SDS011;60605;53.716;19.940;2022-07-05T10:12:58;0.90;;;0.90;;
57899;SDS011;60605;53.716;19.940;2022-07-05T10:18:04;0.80;;;0.80;;
57899;SDS011;60605;53.716;19.940;2022-07-05T10:28:18;0.90;;;0.60;;
57899;SDS011;60605;53.716;19.940;2022-07-05T10:33:23;1.80;;;1.00;;
57899;SDS011;60605;53.716;19.940;2022-07-05T10:38:30;2.20;;;0.80;;
57899;SDS011;60605;53.716;19.940;2022-07-05T10:43:38;1.60;;;0.70;;
57899;SDS011;60605;53.716;19.940;2022-07-05T10:48:41;1.70;;;1.00;;
57899;SDS011;60605;53.716;19.940;2022-07-05T10:58:49;0.80;;;0.80;;
57899;SDS011;60605;53.716;19.940;2022-07-05T11:09:23;0.90;;;0.90;;
57899;SDS011;60605;53.716;19.940;2022-07-05T11:19:32;1.90;;;1.20;;
57899;SDS011;60605;53.716;19.940;2022-07-05T11:24:36;0.90;;;0.90;;
57899;SDS011;60605;53.716;19.940;2022-07-05T11:34:46;1.00;;;1.00;;
57899;SDS011;60605;53.716;19.940;2022-07-05T11:45:15;0.70;;;0.70;;
57899;SDS011;60605;53.716;19.940;2022-07-05T11:50:24;1.50;;;0.90;;
57899;SDS011;60605;53.716;19.940;2022-07-05T11:55:29;2.80;;;1.10;;
57899;SDS011;60605;53.716;19.940;2022-07-05T12:00:34;1.90;;;0.90;;
57899;SDS011;60605;53.716;19.940;2022-07-05T12:05:39;1.20;;;1.10;;
57899;SDS011;60605;53.716;19.940;2022-07-05T12:10:46;1.60;;;1.20;;
57899;SDS011;60605;53.716;19.940;2022-07-05T12:16:17;1.80;;;0.90;;
57899;SDS011;60605;53.716;19.940;2022-07-05T12:21:21;0.70;;;0.70;;
57899;SDS011;60605;53.716;19.940;2022-07-05T12:26:26;1.60;;;0.90;;
57899;SDS011;60605;53.716;19.940;2022-07-05T12:31:30;0.80;;;0.80;;
57899;SDS011;60605;53.716;19.940;2022-07-05T12:36:35;1.20;;;1.00;;
57899;SDS011;60605;53.716;19.940;2022-07-05T12:41:45;2.50;;;0.90;;
57899;SDS011;60605;53.716;19.940;2022-07-05T12:46:49;1.20;;;1.10;;
57899;SDS011;60605;53.716;19.940;2022-07-05T12:51:54;3.20;;;1.10;;
57899;SDS011;60605;53.716;19.940;2022-07-05T12:57:14;1.10;;;1.00;;
57899;SDS011;60605;53.716;19.940;2022-07-05T13:02:40;1.20;;;1.10;;
57899;SDS011;60605;53.716;19.940;2022-07-05T13:07:46;1.40;;;0.80;;
57899;SDS011;60605;53.716;19.940;2022-07-05T13:18:01;1.20;;;0.80;;
57899;SDS011;60605;53.716;19.940;2022-07-05T13:23:05;1.20;;;1.00;;
57899;SDS011;60605;53.716;19.940;2022-07-05T13:28:08;1.70;;;1.00;;
57899;SDS011;60605;53.716;19.940;2022-07-05T13:33:12;1.00;;;1.00;;
57899;SDS011;60605;53.716;19.940;2022-07-05T13:38:15;1.10;;;1.00;;
57899;SDS011;60605;53.716;19.940;2022-07-05T13:43:20;2.80;;;1.40;;
57899;SDS011;60605;53.716;19.940;2022-07-05T13:48:23;2.90;;;1.20;;
57899;SDS011;60605;53.716;19.940;2022-07-05T13:53:28;1.10;;;1.10;;
57899;SDS011;60605;53.716;19.940;2022-07-05T13:58:32;1.30;;;1.20;;
57899;SDS011;60605;53.716;19.940;2022-07-05T14:03:36;1.40;;;1.00;;
57899;SDS011;60605;53.716;19.940;2022-07-05T14:08:40;1.20;;;1.00;;
57899;SDS011;60605;53.716;19.940;2022-07-05T14:13:45;3.40;;;1.10;;
57899;SDS011;60605;53.716;19.940;2022-07-05T14:18:49;1.30;;;1.20;;
57899;SDS011;60605;53.716;19.940;2022-07-05T14:23:54;2.60;;;1.40;;
57899;SDS011;60605;53.716;19.940;2022-07-05T14:28:57;3.10;;;1.50;;
57899;SDS011;60605;53.716;19.940;2022-07-05T14:34:01;2.80;;;1.50;;
57899;SDS011;60605;53.716;19.940;2022-07-05T14:39:05;2.50;;;1.50;;
57899;SDS011;60605;53.716;19.940;2022-07-05T14:44:09;4.30;;;1.90;;
57899;SDS011;60605;53.716;19.940;2022-07-05T14:49:12;4.30;;;2.20;;
57899;SDS011;60605;53.716;19.940;2022-07-05T14:54:16;4.00;;;2.20;;
57899;SDS011;60605;53.716;19.940;2022-07-05T14:59:19;3.90;;;2.40;;
57899;SDS011;60605;53.716;19.940;2022-07-05T15:04:22;4.40;;;2.10;;
57899;SDS011;60605;53.716;19.940;2022-07-05T15:09:26;5.20;;;2.20;;
57899;SDS011;60605;53.716;19.940;2022-07-05T15:14:32;2.30;;;1.70;;
57899;SDS011;60605;53.716;19.940;2022-07-05T15:19:37;2.40;;;1.80;;
57899;SDS011;60605;53.716;19.940;2022-07-05T15:24:43;4.20;;;2.80;;
57899;SDS011;60605;53.716;19.940;2022-07-05T15:29:48;3.40;;;1.70;;
57899;SDS011;60605;53.716;19.940;2022-07-05T15:34:52;4.00;;;2.50;;
57899;SDS011;60605;53.716;19.940;2022-07-05T15:39:56;5.80;;;1.40;;
57899;SDS011;60605;53.716;19.940;2022-07-05T15:45:02;3.70;;;2.30;;
57899;SDS011;60605;53.716;19.940;2022-07-05T15:50:07;2.40;;;1.80;;
57899;SDS011;60605;53.716;19.940;2022-07-05T15:55:13;1.50;;;1.20;;
57899;SDS011;60605;53.716;19.940;2022-07-05T16:00:17;2.60;;;1.30;;
57899;SDS011;60605;53.716;19.940;2022-07-05T16:05:22;1.10;;;1.10;;
57899;SDS011;60605;53.716;19.940;2022-07-05T16:10:26;1.70;;;1.40;;
57899;SDS011;60605;53.716;19.940;2022-07-05T16:15:36;1.70;;;1.50;;
57899;SDS011;60605;53.716;19.940;2022-07-05T16:20:58;2.80;;;1.60;;
57899;SDS011;60605;53.716;19.940;2022-07-05T16:26:13;4.10;;;2.00;;
57899;SDS011;60605;53.716;19.940;2022-07-05T16:31:18;3.90;;;2.00;;
57899;SDS011;60605;53.716;19.940;2022-07-05T16:36:22;4.80;;;1.90;;
57899;SDS011;60605;53.716;19.940;2022-07-05T16:41:26;1.70;;;1.50;;
57899;SDS011;60605;53.716;19.940;2022-07-05T16:46:31;2.40;;;1.60;;
57899;SDS011;60605;53.716;19.940;2022-07-05T16:51:35;1.40;;;1.30;;
57899;SDS011;60605;53.716;19.940;2022-07-05T16:56:38;1.30;;;1.20;;
57899;SDS011;60605;53.716;19.940;2022-07-05T17:01:42;1.60;;;1.30;;
57899;SDS011;60605;53.716;19.940;2022-07-05T17:06:46;1.50;;;1.40;;
57899;SDS011;60605;53.716;19.940;2022-07-05T17:11:49;2.20;;;1.20;;
57899;SDS011;60605;53.716;19.940;2022-07-05T17:16:53;3.10;;;1.30;;
57899;SDS011;60605;53.716;19.940;2022-07-05T17:21:57;2.80;;;1.50;;
57899;SDS011;60605;53.716;19.940;2022-07-05T17:27:01;3.10;;;1.20;;
57899;SDS011;60605;53.716;19.940;2022-07-05T17:32:04;2.90;;;1.60;;
57899;SDS011;60605;53.716;19.940;2022-07-05T17:37:09;1.90;;;1.20;;
57899;SDS011;60605;53.716;19.940;2022-07-05T17:42:14;1.70;;;1.30;;
57899;SDS011;60605;53.716;19.940;2022-07-05T17:47:18;1.20;;;1.10;;
57899;SDS011;60605;53.716;19.940;2022-07-05T17:52:22;3.90;;;1.50;;
57899;SDS011;60605;53.716;19.940;2022-07-05T17:57:29;4.50;;;1.60;;
57899;SDS011;60605;53.716;19.940;2022-07-05T18:02:32;3.70;;;1.80;;
57899;SDS011;60605;53.716;19.940;2022-07-05T18:07:39;4.10;;;1.90;;
57899;SDS011;60605;53.716;19.940;2022-07-05T18:12:43;2.90;;;1.80;;
57899;SDS011;60605;53.716;19.940;2022-07-05T18:17:47;2.70;;;1.80;;
57899;SDS011;60605;53.716;19.940;2022-07-05T18:22:51;4.60;;;1.70;;
57899;SDS011;60605;53.716;19.940;2022-07-05T18:27:55;3.30;;;1.80;;
57899;SDS011;60605;53.716;19.940;2022-07-05T18:32:59;3.00;;;1.80;;
57899;SDS011;60605;53.716;19.940;2022-07-05T18:38:04;2.40;;;1.90;;
57899;SDS011;60605;53.716;19.940;2022-07-05T18:43:08;3.30;;;1.40;;
57899;SDS011;60605;53.716;19.940;2022-07-05T18:48:12;2.40;;;1.70;;
57899;SDS011;60605;53.716;19.940;2022-07-05T18:53:16;2.20;;;1.80;;
57899;SDS011;60605;53.716;19.940;2022-07-05T18:58:20;2.70;;;1.90;;
57899;SDS011;60605;53.716;19.940;2022-07-05T19:03:24;2.20;;;1.70;;
57899;SDS011;60605;53.716;19.940;2022-07-05T19:08:27;2.90;;;1.90;;
57899;SDS011;60605;53.716;19.940;2022-07-05T19:13:50;2.60;;;1.90;;
57899;SDS011;60605;53.716;19.940;2022-07-05T19:18:53;2.50;;;1.70;;
57899;SDS011;60605;53.716;19.940;2022-07-05T19:23:58;2.50;;;1.70;;
57899;SDS011;60605;53.716;19.940;2022-07-05T19:29:04;1.80;;;1.70;;
57899;SDS011;60605;53.716;19.940;2022-07-05T19:34:11;6.10;;;4.20;;
57899;SDS011;60605;53.716;19.940;2022-07-05T19:39:21;5.10;;;3.70;;
57899;SDS011;60605;53.716;19.940;2022-07-05T19:44:24;5.00;;;2.20;;
57899;SDS011;60605;53.716;19.940;2022-07-05T19:49:28;3.80;;;2.40;;
57899;SDS011;60605;53.716;19.940;2022-07-05T19:54:34;3.60;;;2.30;;
57899;SDS011;60605;53.716;19.940;2022-07-05T19:59:38;5.50;;;4.20;;
57899;SDS011;60605;53.716;19.940;2022-07-05T20:04:43;7.00;;;4.80;;
57899;SDS011;60605;53.716;19.940;2022-07-05T20:09:47;5.70;;;4.60;;
57899;SDS011;60605;53.716;19.940;2022-07-05T20:14:58;7.20;;;4.80;;
57899;SDS011;60605;53.716;19.940;2022-07-05T20:20:02;2.90;;;2.60;;
57899;SDS011;60605;53.716;19.940;2022-07-05T20:25:09;3.70;;;2.20;;
57899;SDS011;60605;53.716;19.940;2022-07-05T20:30:15;3.10;;;2.10;;
57899;SDS011;60605;53.716;19.940;2022-07-05T20:35:19;3.10;;;2.10;;
57899;SDS011;60605;53.716;19.940;2022-07-05T20:40:23;2.70;;;1.80;;
57899;SDS011;60605;53.716;19.940;2022-07-05T20:45:27;3.60;;;2.40;;
57899;SDS011;60605;53.716;19.940;2022-07-05T20:50:31;7.60;;;2.70;;
57899;SDS011;60605;53.716;19.940;2022-07-05T20:55:34;4.70;;;2.20;;
57899;SDS011;60605;53.716;19.940;2022-07-05T21:00:38;2.60;;;2.20;;
57899;SDS011;60605;53.716;19.940;2022-07-05T21:05:43;3.80;;;2.40;;
57899;SDS011;60605;53.716;19.940;2022-07-05T21:10:46;2.40;;;2.10;;
57899;SDS011;60605;53.716;19.940;2022-07-05T21:15:50;2.90;;;2.00;;
57899;SDS011;60605;53.716;19.940;2022-07-05T21:20:53;4.90;;;2.00;;
57899;SDS011;60605;53.716;19.940;2022-07-05T21:25:57;2.90;;;2.00;;
57899;SDS011;60605;53.716;19.940;2022-07-05T21:31:01;3.50;;;1.90;;
57899;SDS011;60605;53.716;19.940;2022-07-05T21:36:05;2.70;;;2.10;;
57899;SDS011;60605;53.716;19.940;2022-07-05T21:41:10;5.40;;;1.80;;
57899;SDS011;60605;53.716;19.940;2022-07-05T21:46:14;4.10;;;2.00;;
57899;SDS011;60605;53.716;19.940;2022-07-05T21:51:17;7.10;;;2.80;;
57899;SDS011;60605;53.716;19.940;2022-07-05T21:56:21;4.50;;;2.10;;
57899;SDS011;60605;53.716;19.940;2022-07-05T22:01:25;3.50;;;2.10;;
57899;SDS011;60605;53.716;19.940;2022-07-05T22:06:47;3.90;;;1.70;;
57899;SDS011;60605;53.716;19.940;2022-07-05T22:11:50;3.70;;;2.10;;
57899;SDS011;60605;53.716;19.940;2022-07-05T22:16:55;3.10;;;1.90;;
57899;SDS011;60605;53.716;19.940;2022-07-05T22:21:58;2.10;;;1.70;;
57899;SDS011;60605;53.716;19.940;2022-07-05T22:27:02;5.40;;;2.00;;
57899;SDS011;60605;53.716;19.940;2022-07-05T22:32:06;6.00;;;2.30;;
57899;SDS011;60605;53.716;19.940;2022-07-05T22:37:10;5.50;;;2.40;;
57899;SDS011;60605;53.716;19.940;2022-07-05T22:42:14;3.40;;;2.00;;
57899;SDS011;60605;53.716;19.940;2022-07-05T22:47:17;3.30;;;2.10;;
57899;SDS011;60605;53.716;19.940;2022-07-05T22:52:20;2.80;;;2.30;;
57899;SDS011;60605;53.716;19.940;2022-07-05T22:57:24;4.20;;;2.60;;
57899;SDS011;60605;53.716;19.940;2022-07-05T23:02:27;4.10;;;2.40;;
57899;SDS011;60605;53.716;19.940;2022-07-05T23:07:31;4.60;;;2.20;;
57899;SDS011;60605;53.716;19.940;2022-07-05T23:12:34;3.50;;;2.50;;
57899;SDS011;60605;53.716;19.940;2022-07-05T23:17:37;3.40;;;2.60;;
57899;SDS011;60605;53.716;19.940;2022-07-05T23:22:41;3.30;;;2.40;;
57899;SDS011;60605;53.716;19.940;2022-07-05T23:27:44;2.90;;;2.50;;
57899;SDS011;60605;53.716;19.940;2022-07-05T23:32:48;2.70;;;2.50;;
57899;SDS011;60605;53.716;19.940;2022-07-05T23:37:51;3.00;;;2.60;;
57899;SDS011;60605;53.716;19.940;2022-07-05T23:42:55;3.90;;;3.40;;
57899;SDS011;60605;53.716;19.940;2022-07-05T23:47:59;5.20;;;2.60;;
57899;SDS011;60605;53.716;19.940;2022-07-05T23:53:02;4.20;;;2.60;;
57899;SDS011;60605;53.716;19.940;2022-07-05T23:58:05;5.90;;;2.80;;
